Time;durP1;ratioP1;P1;durP2;ratioP2;P2;SDS_P1;SDS_P2;PMS_P1;PMS_P2;Temp;Humidity;BMP_temperature;BMP_pressure;BME280_temperature;BME280_humidity;BME280_pressure;Samples;Min_cycle;Max_cycle;Signal;HPM_P1;HPM_P2
2021/07/08 00:00:22;;;;;;;;;6.25;5.25;;;;;25.44;39.39;101539.81;5017987;28;51110;-38
2021/07/08 00:02:48;;;;;;;;;4.75;3.50;;;;;25.44;39.34;101533.44;5012081;28;51635;-38
2021/07/08 00:05:15;;;;;;;;;4.00;4.00;;;;;25.43;39.22;101528.94;5014270;28;51103;-38
2021/07/08 00:07:41;;;;;;;;;5.00;5.00;;;;;25.42;39.09;101524.47;5015920;27;51148;-38
2021/07/08 00:10:10;;;;;;;;;6.75;4.25;;;;;25.42;39.26;101527.25;5014398;27;51139;-39
2021/07/08 00:12:35;;;;;;;;;5.50;4.00;;;;;25.41;39.34;101531.94;5014512;28;52164;-38
2021/07/08 00:15:03;;;;;;;;;3.50;3.00;;;;;25.41;39.18;101531.94;5031961;28;51220;-38
2021/07/08 00:17:28;;;;;;;;;3.75;3.75;;;;;25.41;39.30;101528.34;5014351;28;51072;-38
2021/07/08 00:19:53;;;;;;;;;4.00;4.00;;;;;25.40;39.50;101527.50;5013241;28;51065;-40
2021/07/08 00:22:19;;;;;;;;;3.25;3.25;;;;;25.41;39.44;101533.88;5012918;28;51098;-39
2021/07/08 00:24:44;;;;;;;;;5.00;4.00;;;;;25.41;39.38;101531.94;5014585;28;51157;-38
2021/07/08 00:27:09;;;;;;;;;6.00;4.25;;;;;25.41;39.47;101528.34;5017397;27;51126;-39
2021/07/08 00:29:35;;;;;;;;;2.75;2.75;;;;;25.39;39.21;101534.13;5020958;28;50786;-39
2021/07/08 00:32:01;;;;;;;;;5.00;4.00;;;;;25.40;39.55;101527.50;5016909;28;51581;-39
2021/07/08 00:34:26;;;;;;;;;3.00;3.00;;;;;25.40;39.46;101532.19;5014117;28;51158;-39
2021/07/08 00:36:51;;;;;;;;;2.75;2.25;;;;;25.39;39.58;101534.13;5024314;28;51149;-39
2021/07/08 00:39:16;;;;;;;;;4.75;3.75;;;;;25.39;39.57;101534.13;5037519;28;51874;-39
2021/07/08 00:41:43;;;;;;;;;5.00;3.00;;;;;25.38;39.47;101532.44;5011237;28;51791;-36
2021/07/08 00:44:08;;;;;;;;;4.50;4.00;;;;;25.39;39.72;101533.28;5012772;28;50942;-37
2021/07/08 00:46:33;;;;;;;;;4.00;3.00;;;;;25.38;39.56;101537.13;5030750;28;51206;-36
2021/07/08 00:48:59;;;;;;;;;3.00;3.00;;;;;25.38;39.63;101537.13;5014665;28;51223;-37
2021/07/08 00:51:24;;;;;;;;;4.75;4.75;;;;;25.38;39.50;101531.59;5014370;28;51989;-38
2021/07/08 00:53:49;;;;;;;;;5.75;4.75;;;;;25.38;39.46;101534.38;5015947;28;51153;-38
2021/07/08 00:56:15;;;;;;;;;6.25;4.25;;;;;25.37;39.77;101529.91;5012684;28;51236;-38
2021/07/08 00:58:45;;;;;;;;;5.50;3.00;;;;;25.37;39.66;101527.97;5011543;28;51148;-38
2021/07/08 01:01:11;;;;;;;;;5.00;5.00;;;;;25.38;39.44;101526.03;5014671;28;51798;-38
2021/07/08 01:03:36;;;;;;;;;6.00;4.00;;;;;25.36;39.77;101529.06;5015068;28;51153;-38
2021/07/08 01:06:02;;;;;;;;;6.25;5.25;;;;;25.38;39.69;101534.38;5013494;28;50965;-38
2021/07/08 01:08:28;;;;;;;;;4.25;4.00;;;;;25.36;39.78;101537.38;5012809;28;51331;-38
2021/07/08 01:10:53;;;;;;;;;4.00;3.00;;;;;25.36;39.52;101533.75;5020059;27;52855;-38
2021/07/08 01:13:21;;;;;;;;;3.75;3.75;;;;;25.36;39.79;101536.53;5012491;28;51029;-38
2021/07/08 01:15:46;;;;;;;;;4.00;3.25;;;;;25.35;39.69;101532.91;5014045;28;50997;-38
2021/07/08 01:18:12;;;;;;;;;8.00;4.25;;;;;25.35;39.74;101532.09;5016869;28;51220;-38
2021/07/08 01:20:39;;;;;;;;;3.00;3.00;;;;;25.35;39.71;101532.91;5018089;27;51959;-38
2021/07/08 01:23:05;;;;;;;;;3.75;3.75;;;;;25.33;39.72;101535.94;5012358;28;51381;-38
2021/07/08 01:25:35;;;;;;;;;3.75;3.75;;;;;25.33;39.68;101527.63;5011769;28;51041;-38
2021/07/08 01:28:04;;;;;;;;;5.00;5.00;;;;;25.33;39.97;101533.16;5022312;27;51356;-38
2021/07/08 01:30:30;;;;;;;;;5.50;3.00;;;;;25.35;39.92;101534.84;5011459;28;52074;-39
2021/07/08 01:32:57;;;;;;;;;5.00;5.00;;;;;25.34;39.83;101536.78;5012329;28;51024;-39
2021/07/08 01:35:23;;;;;;;;;4.00;4.00;;;;;25.33;39.79;101537.88;5012525;27;51011;-38
2021/07/08 01:37:48;;;;;;;;;3.25;3.00;;;;;25.31;39.77;101546.41;5012447;28;51238;-38
2021/07/08 01:40:17;;;;;;;;;4.00;3.25;;;;;25.32;39.83;101544.47;5020297;28;51131;-38
2021/07/08 01:42:44;;;;;;;;;4.00;4.00;;;;;25.30;40.04;101541.94;5026772;28;51035;-38
2021/07/08 01:45:13;;;;;;;;;4.50;3.00;;;;;25.32;39.91;101550.00;5016191;28;51171;-38
2021/07/08 01:47:39;;;;;;;;;3.25;3.25;;;;;25.31;39.92;101554.72;5019830;28;51127;-38
2021/07/08 01:50:06;;;;;;;;;3.00;3.00;;;;;25.31;40.06;101564.97;5018708;27;51769;-38
2021/07/08 01:52:32;;;;;;;;;4.75;4.00;;;;;25.31;39.94;101560.25;5017354;28;51259;-40
2021/07/08 01:54:57;;;;;;;;;5.00;5.00;;;;;25.31;39.96;101568.59;5014816;28;51230;-38
2021/07/08 01:57:23;;;;;;;;;5.25;3.50;;;;;25.31;39.94;101556.66;5015097;28;51153;-38
2021/07/08 01:59:48;;;;;;;;;3.75;3.75;;;;;25.30;39.92;101558.59;5014642;28;51114;-38
2021/07/08 02:02:13;;;;;;;;;3.00;3.00;;;;;25.30;40.06;101558.59;5014330;28;51002;-38
2021/07/08 02:04:39;;;;;;;;;4.50;3.75;;;;;25.30;39.95;101557.72;5015835;28;51246;-38
2021/07/08 02:07:04;;;;;;;;;3.00;3.00;;;;;25.29;39.92;101564.38;5017432;28;51150;-38
2021/07/08 02:09:31;;;;;;;;;2.50;2.50;;;;;25.28;40.12;101566.28;5014621;28;52933;-37
2021/07/08 02:11:58;;;;;;;;;3.00;3.00;;;;;25.27;39.85;101567.38;5015730;28;51219;-39
2021/07/08 02:14:25;;;;;;;;;4.25;4.25;;;;;25.29;40.06;101569.91;5017928;28;50915;-38
2021/07/08 02:16:50;;;;;;;;;3.75;2.75;;;;;25.29;40.19;101572.69;5016413;28;51358;-38
2021/07/08 02:19:15;;;;;;;;;4.75;3.25;;;;;25.28;40.10;101571.00;5014772;28;51642;-38
2021/07/08 02:21:41;;;;;;;;;3.00;3.00;;;;;25.28;40.25;101571.00;5016872;28;51070;-39
2021/07/08 02:24:06;;;;;;;;;5.00;4.00;;;;;25.28;40.14;101565.44;5017829;28;51315;-38
2021/07/08 02:26:31;;;;;;;;;2.00;2.00;;;;;25.27;40.23;101561.84;5014969;28;51099;-38
2021/07/08 02:28:57;;;;;;;;;2.00;2.00;;;;;25.27;40.14;101569.31;5039613;27;51095;-39
2021/07/08 02:31:22;;;;;;;;;5.00;3.75;;;;;25.27;40.11;101569.31;5014754;28;51062;-38
2021/07/08 02:33:47;;;;;;;;;5.00;3.00;;;;;25.26;39.95;101562.06;5014031;28;51209;-38
2021/07/08 02:36:13;;;;;;;;;3.75;3.00;;;;;25.27;40.00;101561.00;5013646;28;51154;-38
2021/07/08 02:38:38;;;;;;;;;3.75;3.75;;;;;25.26;40.04;101560.16;5018353;27;51824;-38
2021/07/08 02:41:05;;;;;;;;;3.75;3.75;;;;;25.27;39.91;101553.50;5017381;28;51198;-38
2021/07/08 02:43:30;;;;;;;;;3.00;3.00;;;;;25.26;39.94;101562.91;5018187;28;51538;-38
2021/07/08 02:45:56;;;;;;;;;3.75;3.00;;;;;25.26;40.26;101560.16;5032937;28;50830;-38
2021/07/08 02:48:22;;;;;;;;;4.50;3.00;;;;;25.25;40.10;101549.31;5015955;28;50967;-39
2021/07/08 02:50:53;;;;;;;;;2.25;2.25;;;;;25.27;40.15;101555.44;5015512;28;51159;-39
2021/07/08 02:53:19;;;;;;;;;4.00;3.00;;;;;25.24;40.24;101554.00;5018305;28;51132;-38
2021/07/08 02:55:45;;;;;;;;;3.50;3.25;;;;;25.25;40.04;101546.53;5016393;28;51218;-38
2021/07/08 02:58:12;;;;;;;;;4.00;4.00;;;;;25.25;40.06;101552.91;5014413;28;51715;-39
2021/07/08 03:00:39;;;;;;;;;2.00;2.00;;;;;25.24;40.19;101559.53;5012720;28;51216;-38
2021/07/08 03:03:05;;;;;;;;;3.50;3.50;;;;;25.24;40.13;101554.00;5015124;28;50959;-39
2021/07/08 03:05:30;;;;;;;;;2.25;2.25;;;;;25.24;40.16;101548.47;5014707;28;50987;-39
2021/07/08 03:07:57;;;;;;;;;3.00;3.00;;;;;25.25;40.06;101549.31;5014536;28;51902;-38
2021/07/08 03:10:25;;;;;;;;;5.50;3.25;;;;;25.23;40.06;101552.31;5023158;28;51323;-38
2021/07/08 03:12:52;;;;;;;;;4.75;3.75;;;;;25.22;40.36;101556.16;5019676;27;51185;-39
2021/07/08 03:15:17;;;;;;;;;3.25;3.00;;;;;25.22;40.20;101556.16;5022177;28;51609;-38
2021/07/08 03:17:43;;;;;;;;;4.25;4.00;;;;;25.21;40.21;101562.78;5017080;28;51802;-38
2021/07/08 03:20:13;;;;;;;;;3.25;3.25;;;;;25.21;40.22;101560.00;5014287;28;51538;-39
2021/07/08 03:22:42;;;;;;;;;4.50;4.50;;;;;25.20;40.15;101561.09;5015092;28;51366;-38
2021/07/08 03:25:09;;;;;;;;;3.00;3.00;;;;;25.21;40.23;101561.94;5014570;28;50827;-38
2021/07/08 03:27:35;;;;;;;;;3.00;3.00;;;;;25.20;39.95;101560.25;5045822;27;51858;-39
2021/07/08 03:30:01;;;;;;;;;3.50;3.50;;;;;25.19;40.26;101567.72;5015309;27;51211;-39
2021/07/08 03:32:26;;;;;;;;;3.50;2.75;;;;;25.18;40.33;101568.81;5014135;28;51089;-38
2021/07/08 03:34:51;;;;;;;;;3.00;3.00;;;;;25.19;40.46;101570.50;5013582;28;51121;-39
2021/07/08 03:37:17;;;;;;;;;4.50;4.00;;;;;25.18;40.42;101573.50;5015803;28;51057;-38
2021/07/08 03:39:42;;;;;;;;;3.00;3.00;;;;;25.17;40.27;101572.66;5020170;28;52543;-38
2021/07/08 03:42:08;;;;;;;;;2.25;2.25;;;;;25.17;40.24;101574.59;5014594;28;51227;-38
2021/07/08 03:44:33;;;;;;;;;3.00;3.00;;;;;25.18;40.47;101581.81;5018314;28;51247;-39
2021/07/08 03:46:59;;;;;;;;;3.00;3.00;;;;;25.17;40.57;101583.75;5012637;28;51120;-38
2021/07/08 03:49:24;;;;;;;;;3.25;3.25;;;;;25.16;40.62;101582.06;5015568;27;51103;-42
2021/07/08 03:51:49;;;;;;;;;2.25;2.25;;;;;25.16;40.42;101593.16;5033719;28;50479;-39
2021/07/08 03:54:15;;;;;;;;;3.00;3.00;;;;;25.16;40.54;101592.31;5015705;28;51244;-38
2021/07/08 03:56:40;;;;;;;;;3.00;3.00;;;;;25.15;40.59;101591.47;5014384;27;52667;-38
2021/07/08 03:59:05;;;;;;;;;2.25;2.25;;;;;25.16;40.62;101595.91;5017590;28;51226;-38
2021/07/08 04:01:31;;;;;;;;;3.00;3.00;;;;;25.14;40.72;101592.53;5012601;28;51227;-39
2021/07/08 04:03:56;;;;;;;;;2.50;2.25;;;;;25.15;40.51;101590.63;5013393;28;51134;-38
2021/07/08 04:06:22;;;;;;;;;4.25;4.25;;;;;25.14;40.72;101602.78;5016232;28;51907;-38
2021/07/08 04:08:47;;;;;;;;;4.25;4.25;;;;;25.14;40.66;101613.88;5015607;28;50861;-38
2021/07/08 04:11:12;;;;;;;;;6.00;3.75;;;;;25.13;40.49;101603.88;5013006;28;51075;-38
2021/07/08 04:13:38;;;;;;;;;3.75;3.00;;;;;25.13;40.87;101618.59;5013869;28;51168;-38
2021/07/08 04:16:03;;;;;;;;;4.00;3.00;;;;;25.13;40.77;101618.59;5014541;28;51123;-38
2021/07/08 04:18:29;;;;;;;;;5.50;4.00;;;;;25.13;40.52;101618.59;5015883;27;51011;-38
2021/07/08 04:20:54;;;;;;;;;2.25;2.25;;;;;25.12;40.78;101616.88;5014235;28;51128;-38
2021/07/08 04:23:20;;;;;;;;;3.00;3.00;;;;;25.12;40.82;101616.06;5015926;28;51102;-39
2021/07/08 04:25:45;;;;;;;;;2.25;2.00;;;;;25.11;40.76;101611.56;5013374;28;51901;-39
2021/07/08 04:28:12;;;;;;;;;4.50;3.75;;;;;25.12;40.59;101619.66;5061605;27;51034;-38
2021/07/08 04:30:38;;;;;;;;;2.50;2.25;;;;;25.11;40.76;101620.72;5013717;28;51086;-38
2021/07/08 04:33:04;;;;;;;;;5.00;4.00;;;;;25.11;40.76;101614.31;5015601;28;51158;-38
2021/07/08 04:35:41;;;;;;;;;3.25;3.25;;;;;25.12;40.94;101616.06;5018077;28;50998;-39
2021/07/08 04:38:11;;;;;;;;;4.25;3.00;;;;;25.11;40.73;101617.94;5014534;28;51056;-38
2021/07/08 04:40:38;;;;;;;;;5.25;2.00;;;;;25.10;40.83;101610.72;5014823;28;51228;-38
2021/07/08 04:43:05;;;;;;;;;3.25;3.25;;;;;25.10;40.82;101613.47;5026117;27;51066;-38
2021/07/08 04:45:31;;;;;;;;;5.00;3.00;;;;;25.09;40.83;101609.03;5015454;28;50979;-38
2021/07/08 04:47:56;;;;;;;;;4.00;3.50;;;;;25.09;40.76;101619.25;5016119;28;51210;-38
2021/07/08 04:50:24;;;;;;;;;4.25;3.50;;;;;25.09;41.05;101622.88;5016706;28;51260;-39
2021/07/08 04:52:50;;;;;;;;;3.00;2.75;;;;;25.08;40.88;101621.19;5012832;28;51059;-39
2021/07/08 04:55:17;;;;;;;;;2.50;2.50;;;;;25.07;40.78;101616.72;5029741;28;51988;-38
2021/07/08 04:57:45;;;;;;;;;4.00;4.00;;;;;25.07;40.92;101619.50;5031893;28;51034;-38
2021/07/08 05:00:12;;;;;;;;;3.25;3.25;;;;;25.06;40.94;101628.91;5014304;28;52205;-38
2021/07/08 05:02:38;;;;;;;;;3.75;2.00;;;;;25.06;40.47;101628.91;5013559;28;50960;-38
2021/07/08 05:05:08;;;;;;;;;5.25;4.25;;;;;25.05;40.70;101624.44;5018584;28;51544;-39
2021/07/08 05:07:34;;;;;;;;;4.00;4.00;;;;;25.02;40.58;101624.91;5019206;28;51487;-39
2021/07/08 05:10:00;;;;;;;;;5.50;4.00;;;;;24.99;40.67;101631.72;5013747;27;51171;-39
2021/07/08 05:12:25;;;;;;;;;3.50;3.00;;;;;24.98;40.61;101643.91;5020516;28;51056;-38
2021/07/08 05:14:51;;;;;;;;;3.25;2.50;;;;;24.97;40.53;101641.34;5014705;28;52959;-38
2021/07/08 05:17:18;;;;;;;;;3.25;3.00;;;;;24.95;40.67;101638.81;5015656;28;51156;-38
2021/07/08 05:19:43;;;;;;;;;2.50;2.50;;;;;24.93;40.41;101641.00;5017961;28;51123;-38
2021/07/08 05:22:09;;;;;;;;;2.75;2.75;;;;;24.91;40.70;101645.94;5023439;28;51193;-38
2021/07/08 05:24:34;;;;;;;;;5.00;4.00;;;;;24.88;40.62;101646.38;5024118;28;50960;-43
2021/07/08 05:27:00;;;;;;;;;6.25;5.25;;;;;24.87;41.00;101646.59;5031809;27;51200;-39
2021/07/08 05:29:26;;;;;;;;;3.50;3.00;;;;;24.87;40.93;101646.59;5016501;28;51095;-39
2021/07/08 05:31:51;;;;;;;;;4.00;4.00;;;;;24.85;40.81;101648.78;5017776;28;51021;-39
2021/07/08 05:34:17;;;;;;;;;3.25;3.25;;;;;24.85;40.52;101651.53;5017452;28;51872;-39
2021/07/08 05:36:43;;;;;;;;;7.25;5.75;;;;;24.84;40.90;101649.84;5014806;28;51555;-45
2021/07/08 05:39:08;;;;;;;;;5.50;3.00;;;;;24.84;40.84;101647.09;5035295;27;51208;-39
2021/07/08 05:41:34;;;;;;;;;4.75;4.75;;;;;24.86;41.49;101645.75;5012425;28;51556;-38
2021/07/08 05:43:59;;;;;;;;;4.75;4.75;;;;;24.88;41.45;101660.22;5013518;28;52218;-38
2021/07/08 05:46:26;;;;;;;;;5.25;3.25;;;;;24.91;41.57;101658.94;5013580;28;51667;-38
2021/07/08 05:48:51;;;;;;;;;6.25;4.00;;;;;24.93;41.64;101668.72;5014554;28;51147;-38
2021/07/08 05:51:17;;;;;;;;;5.25;5.25;;;;;24.96;41.50;101664.63;5014237;28;51536;-38
2021/07/08 05:53:42;;;;;;;;;6.50;4.75;;;;;24.97;41.58;101667.16;5017569;28;51700;-38
2021/07/08 05:56:07;;;;;;;;;3.00;3.00;;;;;25.00;41.84;101669.44;5016044;27;51204;-38
2021/07/08 05:58:33;;;;;;;;;3.00;3.00;;;;;25.01;41.91;101662.88;5016196;28;50972;-38
2021/07/08 06:00:58;;;;;;;;;6.00;4.00;;;;;25.06;41.65;101664.09;5033639;27;51390;-38
2021/07/08 06:03:24;;;;;;;;;5.00;4.50;;;;;25.07;41.94;101669.41;5018343;28;52177;-38
2021/07/08 06:05:50;;;;;;;;;3.25;3.25;;;;;25.10;42.65;101666.16;5020133;28;51216;-39
2021/07/08 06:08:16;;;;;;;;;5.25;5.25;;;;;25.13;42.21;101667.63;5028482;27;51141;-38
2021/07/08 06:10:41;;;;;;;;;4.00;4.00;;;;;25.15;42.47;101666.31;5014974;28;51165;-38
2021/07/08 06:13:08;;;;;;;;;5.75;4.25;;;;;25.17;42.49;101666.91;5012437;28;52325;-38
2021/07/08 06:15:33;;;;;;;;;4.50;3.75;;;;;25.19;42.78;101664.75;5011024;27;51081;-39
2021/07/08 06:17:58;;;;;;;;;6.25;4.00;;;;;25.23;42.97;101667.94;5010981;28;52374;-43
2021/07/08 06:20:24;;;;;;;;;7.25;4.00;;;;;25.25;42.69;101677.69;5011473;28;51134;-40
2021/07/08 06:22:49;;;;;;;;;5.75;5.00;;;;;25.29;42.96;101672.50;5027836;28;51752;-40
2021/07/08 06:25:15;;;;;;;;;4.00;4.00;;;;;25.30;42.75;101677.81;5011992;28;51132;-42
2021/07/08 06:27:40;;;;;;;;;3.50;3.50;;;;;25.32;42.75;101681.22;5042004;27;51354;-42
2021/07/08 06:30:08;;;;;;;;;4.50;4.00;;;;;25.35;42.88;101685.47;5012359;28;51636;-40
2021/07/08 06:32:33;;;;;;;;;4.25;3.25;;;;;25.38;43.06;101693.28;5022857;27;51132;-40
2021/07/08 06:34:59;;;;;;;;;5.50;3.25;;;;;25.40;42.90;101685.59;5036335;27;51204;-40
2021/07/08 06:37:25;;;;;;;;;5.25;3.50;;;;;25.40;43.16;101685.59;5022510;27;51182;-40
2021/07/08 06:39:51;;;;;;;;;9.75;5.00;;;;;25.42;42.96;101688.13;5010446;27;51279;-41
2021/07/08 06:42:17;;;;;;;;;5.00;3.00;;;;;25.43;43.23;101689.81;5012112;28;51087;-41
2021/07/08 06:44:43;;;;;;;;;5.25;5.00;;;;;25.47;43.16;101699.38;5012004;27;51221;-41
2021/07/08 06:47:13;;;;;;;;;5.75;5.75;;;;;25.49;43.23;101705.53;5013744;27;51122;-41
2021/07/08 06:49:38;;;;;;;;;6.25;4.75;;;;;25.50;42.95;101696.97;5009133;27;50999;-39
2021/07/08 06:52:05;;;;;;;;;6.75;4.00;;;;;25.51;42.96;101704.19;5012648;28;51687;-41
2021/07/08 06:54:30;;;;;;;;;5.50;5.00;;;;;25.52;43.06;101694.78;5013012;27;51196;-39
2021/07/08 06:56:56;;;;;;;;;8.00;4.25;;;;;25.53;43.20;101701.19;5031105;28;52478;-41
2021/07/08 06:59:21;;;;;;;;;5.00;4.00;;;;;25.54;43.04;101700.13;5016968;28;52421;-41
2021/07/08 07:01:46;;;;;;;;;5.25;4.75;;;;;25.55;43.26;101710.13;5012621;28;51209;-39
2021/07/08 07:04:12;;;;;;;;;6.00;5.00;;;;;25.56;42.84;101712.66;5012073;28;51394;-39
2021/07/08 07:06:37;;;;;;;;;6.25;4.00;;;;;25.56;42.93;101725.69;5013047;27;51135;-39
2021/07/08 07:09:02;;;;;;;;;4.50;4.00;;;;;25.55;42.91;101721.22;5014020;28;51094;-39
2021/07/08 07:11:28;;;;;;;;;6.50;5.00;;;;;25.54;42.83;101719.53;5016481;27;51006;-40
2021/07/08 07:13:53;;;;;;;;;5.75;5.00;;;;;25.54;42.69;101730.63;5026339;28;51049;-41
2021/07/08 07:16:19;;;;;;;;;4.00;4.00;;;;;25.53;42.64;101723.38;5013530;28;51145;-41
2021/07/08 07:18:44;;;;;;;;;4.50;4.50;;;;;25.53;42.58;101727.03;5015511;28;51235;-42
2021/07/08 07:21:11;;;;;;;;;5.75;5.75;;;;;25.52;42.39;101721.69;5013557;28;51065;-41
2021/07/08 07:23:37;;;;;;;;;5.00;5.00;;;;;25.50;42.07;101730.25;5014420;27;51392;-40
2021/07/08 07:26:03;;;;;;;;;5.50;5.25;;;;;25.48;42.04;101724.09;5015261;27;51154;-39
2021/07/08 07:28:28;;;;;;;;;5.00;3.25;;;;;25.47;42.04;101727.09;5023417;27;51158;-38
2021/07/08 07:30:54;;;;;;;;;6.75;4.50;;;;;25.45;42.06;101729.28;5012844;28;51716;-38
2021/07/08 07:33:19;;;;;;;;;5.00;5.00;;;;;25.43;42.00;101725.88;5014269;27;51086;-39
2021/07/08 07:35:44;;;;;;;;;8.75;7.25;;;;;25.41;42.04;101725.25;5012777;27;50969;-38
2021/07/08 07:38:12;;;;;;;;;5.75;4.75;;;;;25.42;42.49;101726.94;5027100;28;51295;-38
2021/07/08 07:40:40;;;;;;;;;6.50;4.25;;;;;25.41;42.71;101730.81;5012618;28;51745;-37
2021/07/08 07:43:05;;;;;;;;;5.50;5.50;;;;;25.43;42.76;101731.41;5012164;28;51366;-41
2021/07/08 07:45:30;;;;;;;;;3.00;3.00;;;;;25.43;42.47;101735.06;5011719;28;51105;-39
2021/07/08 07:47:55;;;;;;;;;7.00;4.50;;;;;25.44;42.88;101736.75;5028838;28;51423;-40
2021/07/08 07:50:24;;;;;;;;;7.75;5.00;;;;;25.46;42.88;101734.59;5012271;28;51794;-38
2021/07/08 07:52:52;;;;;;;;;3.50;3.50;;;;;25.47;42.83;101738.19;5030661;27;50959;-42
2021/07/08 07:55:17;;;;;;;;;5.50;4.25;;;;;25.48;42.82;101745.44;5019828;27;51157;-44
2021/07/08 07:57:43;;;;;;;;;6.00;6.00;;;;;25.47;42.52;101746.53;5012882;28;51297;-42
2021/07/08 08:00:09;;;;;;;;;4.75;4.75;;;;;25.46;42.40;101750.38;5012041;28;52025;-40
2021/07/08 08:02:34;;;;;;;;;4.00;4.00;;;;;25.45;42.37;101755.09;5015178;28;51214;-42
2021/07/08 08:10:15;;;;;;;;;5.25;5.25;;;;;25.42;42.10;101755.53;5012164;28;50998;-43
2021/07/08 08:12:41;;;;;;;;;5.50;3.50;;;;;25.41;42.05;101748.28;5027299;28;51561;-42
2021/07/08 08:15:09;;;;;;;;;5.50;5.00;;;;;25.41;41.99;101748.28;5012735;28;51198;-40
2021/07/08 08:17:36;;;;;;;;;4.50;4.50;;;;;25.40;41.89;101741.06;5032523;28;51233;-40
2021/07/08 08:20:02;;;;;;;;;5.00;4.50;;;;;25.41;41.88;101744.66;5043189;27;52033;-42
2021/07/08 08:22:28;;;;;;;;;5.25;3.75;;;;;25.41;41.77;101751.06;5014166;27;51286;-41
2021/07/08 08:24:53;;;;;;;;;4.25;4.00;;;;;25.41;41.74;101745.50;5011720;27;51298;-40
2021/07/08 08:27:19;;;;;;;;;4.50;4.00;;;;;25.41;42.09;101741.91;5039130;27;51255;-42
2021/07/08 08:29:44;;;;;;;;;4.00;4.00;;;;;25.40;41.77;101748.53;5012960;27;51707;-40
2021/07/08 08:32:10;;;;;;;;;3.25;3.25;;;;;25.40;41.50;101746.59;5024838;27;50987;-40
2021/07/08 08:34:37;;;;;;;;;3.50;3.50;;;;;25.40;41.26;101752.16;5014129;27;51215;-43
2021/07/08 08:37:02;;;;;;;;;3.00;3.00;;;;;25.39;41.61;101742.13;5013382;28;51540;-40
2021/07/08 08:39:28;;;;;;;;;7.50;4.50;;;;;25.40;41.36;101752.16;5011148;28;52049;-42
2021/07/08 08:41:54;;;;;;;;;4.00;3.25;;;;;25.41;41.42;101747.44;5012649;28;51115;-41
2021/07/08 08:44:20;;;;;;;;;5.00;5.00;;;;;25.41;41.26;101737.19;5029891;28;51098;-40
2021/07/08 08:46:45;;;;;;;;;4.25;4.25;;;;;25.43;41.17;101739.72;5013644;28;51235;-40
2021/07/08 08:49:10;;;;;;;;;3.50;2.50;;;;;25.44;41.15;101747.00;5011811;28;52384;-41
2021/07/08 08:51:37;;;;;;;;;7.25;4.50;;;;;25.44;41.20;101744.22;5014460;28;51506;-41
2021/07/08 08:54:02;;;;;;;;;4.75;4.75;;;;;25.45;41.22;101743.13;5019065;28;51109;-40
2021/07/08 08:56:28;;;;;;;;;5.50;4.00;;;;;25.46;41.14;101750.38;5011864;28;51346;-42
2021/07/08 08:58:53;;;;;;;;;6.00;4.50;;;;;25.45;41.07;101755.09;5008393;28;51365;-40
2021/07/08 09:01:19;;;;;;;;;5.00;5.00;;;;;25.45;41.17;101749.53;5012012;28;51259;-38
2021/07/08 09:03:45;;;;;;;;;7.25;5.50;;;;;25.45;41.78;101741.22;5029516;28;52745;-37
2021/07/08 09:06:16;;;;;;;;;6.75;6.75;;;;;25.45;41.62;101744.00;5014165;28;51088;-39
2021/07/08 09:08:45;;;;;;;;;6.75;4.00;;;;;25.46;41.86;101744.84;5013328;27;51147;-47
2021/07/08 09:11:24;;;;;;;;;6.25;6.25;;;;;25.46;41.52;101739.28;5016188;27;51680;-46
2021/07/08 09:13:53;;;;;;;;;7.50;4.75;;;;;25.45;41.78;101744.00;5020019;27;51145;-45
2021/07/08 09:16:25;;;;;;;;;6.75;4.75;;;;;25.47;41.86;101743.75;5035464;27;51263;-47
2021/07/08 09:18:56;;;;;;;;;6.00;4.50;;;;;25.47;41.86;101740.97;5024804;27;51391;-46
2021/07/08 09:21:22;;;;;;;;;5.50;5.00;;;;;25.45;41.73;101732.88;5041116;27;51178;-44
2021/07/08 09:24:08;;;;;;;;;3.00;3.00;;;;;25.46;41.78;101730.97;5053216;27;50674;-47
2021/07/08 09:26:39;;;;;;;;;4.75;4.00;;;;;25.45;41.64;101735.66;5038263;27;51153;-44
2021/07/08 09:29:10;;;;;;;;;4.00;4.00;;;;;25.46;41.89;101730.97;5023930;27;51985;-45
2021/07/08 09:31:37;;;;;;;;;5.50;4.50;;;;;25.44;41.57;101731.19;5048314;27;51630;-43
2021/07/08 09:57:35;;;;;;;;;5.00;4.25;;;;;25.49;42.30;101722.16;5059354;27;51167;-55
2021/07/08 10:00:04;;;;;;;;;6.50;6.25;;;;;25.50;42.46;101733.03;5064254;28;51389;-56
2021/07/08 10:02:31;;;;;;;;;4.25;3.75;;;;;25.50;42.18;101721.06;5072916;27;51671;-54
2021/07/08 10:05:00;;;;;;;;;5.50;4.00;;;;;25.50;42.14;101730.25;5074084;28;51099;-55
2021/07/08 10:07:26;;;;;;;;;3.00;3.00;;;;;25.51;42.12;101728.31;5072218;28;51211;-55
2021/07/08 10:09:52;;;;;;;;;4.50;3.50;;;;;25.49;42.14;101723.00;5073479;27;51967;-55
2021/07/08 10:12:18;;;;;;;;;4.50;4.50;;;;;25.51;42.12;101729.16;5071255;28;51071;-54
2021/07/08 10:14:46;;;;;;;;;5.00;5.00;;;;;25.52;42.24;101724.47;5070886;27;51344;-53
2021/07/08 10:17:14;;;;;;;;;4.00;4.00;;;;;25.53;41.97;101728.91;5071624;28;51137;-54
2021/07/08 10:19:43;;;;;;;;;5.25;3.75;;;;;25.52;42.06;101732.78;5070489;28;51228;-55
2021/07/08 10:22:10;;;;;;;;;3.00;2.50;;;;;25.52;41.92;101722.53;5074864;28;51096;-55
2021/07/08 10:24:36;;;;;;;;;8.00;4.25;;;;;25.51;42.02;101723.63;5073774;28;51341;-55
2021/07/08 10:27:02;;;;;;;;;5.25;4.00;;;;;25.51;41.97;101726.38;5073725;28;51491;-54
2021/07/08 10:29:29;;;;;;;;;4.00;3.25;;;;;25.51;41.92;101733.88;5059621;28;53120;-57
2021/07/08 10:31:56;;;;;;;;;6.50;4.00;;;;;25.51;41.91;101726.38;5069979;28;51243;-46
2021/07/08 10:34:22;;;;;;;;;3.50;3.25;;;;;25.52;41.70;101727.22;5060837;28;51602;-55
2021/07/08 10:36:52;;;;;;;;;5.75;4.75;;;;;25.52;41.48;101730.84;5069564;28;51392;-45
2021/07/08 10:39:22;;;;;;;;;5.25;4.25;;;;;25.52;41.61;101728.06;5057168;28;52703;-47
2021/07/08 10:41:51;;;;;;;;;5.75;5.00;;;;;25.53;41.65;101726.16;5070917;28;51240;-49
2021/07/08 10:44:35;;;;;;;;;6.00;3.50;;;;;25.53;41.64;101729.78;5071660;28;51142;-51
2021/07/08 10:47:02;;;;;;;;;3.75;3.75;;;;;25.53;41.47;101724.25;5071000;28;51011;-51
2021/07/08 10:49:38;;;;;;;;;3.50;3.00;;;;;25.53;41.59;101728.91;5072004;27;51843;-48
2021/07/08 10:52:08;;;;;;;;;4.00;4.00;;;;;25.52;41.56;101721.69;5068359;28;52960;-50
2021/07/08 10:54:33;;;;;;;;;8.50;5.50;;;;;25.53;41.47;101734.47;5067272;28;51111;-47
2021/07/08 10:57:00;;;;;;;;;3.50;2.75;;;;;25.53;41.37;101740.03;5067687;28;51470;-50
2021/07/08 10:59:39;;;;;;;;;3.00;2.75;;;;;25.54;41.07;101725.94;5067242;28;51145;-47
2021/07/08 11:02:04;;;;;;;;;4.00;4.00;;;;;25.55;41.28;101732.34;5063588;28;51633;-49
2021/07/08 11:04:51;;;;;;;;;5.25;5.25;;;;;25.55;41.44;101735.09;5073155;28;51150;-53
2021/07/08 11:07:19;;;;;;;;;5.75;4.75;;;;;25.54;41.55;101727.88;5068206;28;51136;-51
2021/07/08 11:10:04;;;;;;;;;5.00;4.50;;;;;25.56;41.46;101743.19;5061147;28;51066;-51
2021/07/08 11:12:35;;;;;;;;;4.75;4.00;;;;;25.57;41.55;101735.72;5060798;28;51283;-51
2021/07/08 11:15:02;;;;;;;;;5.25;5.25;;;;;25.56;41.55;101748.75;5058550;28;51209;-49
2021/07/08 11:17:39;;;;;;;;;6.75;6.75;;;;;25.57;41.51;101738.47;5066448;28;51261;-51
2021/07/08 11:20:32;;;;;;;;;7.75;6.75;;;;;25.57;41.55;101746.81;5069787;28;51233;-50
2021/07/08 11:23:35;;;;;;;;;7.00;6.00;;;;;25.57;41.73;101747.66;5064482;28;51469;-50
2021/07/08 11:26:00;;;;;;;;;7.50;6.25;;;;;25.58;41.36;101748.50;5065685;28;51139;-49
2021/07/08 11:28:29;;;;;;;;;9.75;7.00;;;;;25.59;41.56;101744.63;5067069;28;51164;-52
2021/07/08 11:30:59;;;;;;;;;7.50;7.00;;;;;25.60;41.63;101749.09;5054826;28;50968;-49
2021/07/08 11:33:25;;;;;;;;;7.00;6.25;;;;;25.60;41.64;101736.06;5064466;28;51150;-50
2021/07/08 11:35:58;;;;;;;;;7.50;6.50;;;;;25.60;41.61;101732.44;5057371;28;51039;-50
2021/07/08 11:38:25;;;;;;;;;8.50;7.75;;;;;25.60;41.60;101741.63;5066516;28;51087;-51
2021/07/08 11:40:53;;;;;;;;;8.00;8.00;;;;;25.61;41.43;101739.69;5073943;28;51123;-46
2021/07/08 11:43:27;;;;;;;;;5.50;4.75;;;;;25.61;41.45;101739.69;5073973;28;51145;-51
2021/07/08 11:45:56;;;;;;;;;8.50;8.50;;;;;25.63;41.47;101745.84;5071114;28;51248;-49
2021/07/08 11:48:30;;;;;;;;;7.25;7.25;;;;;25.62;41.43;101749.72;5067258;28;51101;-50
2021/07/08 11:50:55;;;;;;;;;8.00;7.25;;;;;25.63;41.41;101741.16;5049125;28;51976;-51